createdAt,value
2023-04-21T00:02:49.901Z,9.00
2023-04-21T00:04:52.723Z,9.00
2023-04-21T00:06:55.304Z,9.00
2023-04-21T00:08:57.905Z,9.00
2023-04-21T00:11:00.402Z,9.00
2023-04-21T00:13:02.902Z,9.00
2023-04-21T00:15:06.624Z,9.00
2023-04-21T00:17:09.104Z,9.00
2023-04-21T00:19:13.391Z,9.00
2023-04-21T00:21:17.156Z,9.00
2023-04-21T00:23:19.770Z,9.00
2023-04-21T00:25:22.573Z,9.00
2023-04-21T00:27:25.089Z,9.00
2023-04-21T00:29:27.598Z,9.00
2023-04-21T00:31:30.122Z,9.00
2023-04-21T00:33:33.616Z,9.00
2023-04-21T00:35:36.184Z,9.00
2023-04-21T00:37:39.772Z,9.00
2023-04-21T00:39:42.252Z,9.00
2023-04-21T00:41:44.831Z,9.00
2023-04-21T00:44:06.554Z,9.00
2023-04-21T00:46:09.119Z,9.00
2023-04-21T00:48:11.741Z,9.10
2023-04-21T00:50:14.628Z,9.00
2023-04-21T00:52:17.791Z,9.00
2023-04-21T00:54:21.067Z,9.00
2023-04-21T00:56:23.534Z,9.00
2023-04-21T00:58:26.079Z,9.00
2023-04-21T01:00:30.525Z,9.00
2023-04-21T01:02:34.821Z,9.00
2023-04-21T01:04:39.055Z,9.00
2023-04-21T01:08:56.977Z,8.90
2023-04-21T01:10:59.551Z,9.00
2023-04-21T01:13:02.817Z,8.90
2023-04-21T01:15:06.638Z,8.90
2023-04-21T01:17:09.861Z,9.00
2023-04-21T01:19:12.838Z,9.00
2023-04-21T01:21:18.414Z,9.00
2023-04-21T01:23:21.039Z,8.90
2023-04-21T01:25:25.605Z,9.00
2023-04-21T01:27:28.189Z,8.90
2023-04-21T01:29:34.103Z,8.90
2023-04-21T01:31:36.661Z,8.90
2023-04-21T01:33:39.248Z,8.90
2023-04-21T01:35:42.023Z,9.00
2023-04-21T01:37:45.430Z,9.00
2023-04-21T01:39:51.543Z,8.90
2023-04-21T01:41:55.012Z,8.90
2023-04-21T01:43:57.614Z,9.00
2023-04-21T01:46:00.266Z,9.10
2023-04-21T01:48:02.959Z,9.10
2023-04-21T01:50:06.167Z,9.10
2023-04-21T01:52:08.625Z,9.10
2023-04-21T01:54:11.443Z,9.10
2023-04-21T01:56:15.112Z,9.10
2023-04-21T01:58:17.587Z,9.20
2023-04-21T02:00:20.805Z,9.30
2023-04-21T02:02:23.669Z,9.30
2023-04-21T02:04:27.100Z,9.30
2023-04-21T02:06:30.644Z,9.40
2023-04-21T02:08:33.316Z,9.40
2023-04-21T02:10:36.582Z,9.40
2023-04-21T02:12:39.156Z,9.30
2023-04-21T02:14:41.742Z,9.30
2023-04-21T02:16:44.372Z,9.20
2023-04-21T02:18:47.707Z,9.30
2023-04-21T02:20:50.379Z,9.30
2023-04-21T02:22:52.837Z,9.30
2023-04-21T02:24:56.091Z,9.30
2023-04-21T02:26:58.677Z,9.30
2023-04-21T02:29:03.071Z,9.20
2023-04-21T02:31:05.790Z,9.20
2023-04-21T02:33:09.547Z,9.20
2023-04-21T02:35:13.719Z,9.20
2023-04-21T02:37:16.311Z,9.20
2023-04-21T02:39:19.057Z,9.10
2023-04-21T02:41:22.629Z,9.00
2023-04-21T02:43:25.196Z,8.90
2023-04-21T02:45:27.775Z,8.90
2023-04-21T02:47:30.406Z,8.90
2023-04-21T02:49:33.072Z,8.90
2023-04-21T02:51:35.683Z,8.80
2023-04-21T02:53:38.145Z,8.80
2023-04-21T02:55:40.617Z,8.70
2023-04-21T02:57:44.309Z,8.70
2023-04-21T02:59:46.900Z,8.70
2023-04-21T03:01:49.629Z,8.70
2023-04-21T03:03:52.182Z,8.80
2023-04-21T03:05:56.831Z,8.70
2023-04-21T03:07:59.528Z,8.80
2023-04-21T03:10:02.247Z,8.70
2023-04-21T03:12:04.842Z,8.70
2023-04-21T03:14:07.452Z,8.70
2023-04-21T03:16:10.045Z,8.70
2023-04-21T03:18:12.648Z,8.70
2023-04-21T03:20:15.476Z,8.70
2023-04-21T03:22:17.950Z,8.70
2023-04-21T03:24:20.916Z,8.70
2023-04-21T03:26:23.506Z,8.70
2023-04-21T03:28:26.012Z,8.80
2023-04-21T03:30:28.580Z,8.80
2023-04-21T03:32:31.266Z,8.80
2023-04-21T03:34:33.900Z,8.90
2023-04-21T03:36:38.324Z,8.90
2023-04-21T03:38:41.036Z,8.90
2023-04-21T03:40:43.840Z,9.00
2023-04-21T03:45:05.322Z,9.00
2023-04-21T03:47:09.310Z,9.00
2023-04-21T03:49:11.918Z,9.10
2023-04-21T03:51:14.691Z,9.10
2023-04-21T03:53:17.337Z,9.20
2023-04-21T03:55:19.809Z,9.10
2023-04-21T03:57:22.312Z,9.10
2023-04-21T03:59:24.776Z,9.10
2023-04-21T04:01:27.250Z,9.00
2023-04-21T04:03:29.832Z,9.00
2023-04-21T04:05:32.561Z,9.00
2023-04-21T04:07:35.220Z,8.90
2023-04-21T04:09:37.712Z,8.80
2023-04-21T04:11:40.230Z,8.70
2023-04-21T04:13:42.728Z,8.80
2023-04-21T04:15:45.406Z,8.80
2023-04-21T04:17:47.967Z,8.80
2023-04-21T04:19:50.484Z,8.90
2023-04-21T04:21:52.991Z,8.90
2023-04-21T04:23:56.200Z,8.80
2023-04-21T04:25:58.987Z,8.80
2023-04-21T04:28:01.496Z,8.80
2023-04-21T04:30:04.971Z,8.70
2023-04-21T04:32:08.835Z,8.70
2023-04-21T04:34:11.362Z,8.70
2023-04-21T04:36:13.807Z,8.70
2023-04-21T04:38:16.519Z,8.70
2023-04-21T04:40:19.995Z,8.70
2023-04-21T04:42:22.519Z,8.60
2023-04-21T04:44:25.377Z,8.60
2023-04-21T04:46:28.058Z,8.60
2023-04-21T04:48:30.656Z,8.60
2023-04-21T04:50:33.122Z,8.60
2023-04-21T04:52:35.643Z,8.50
2023-04-21T04:56:53.493Z,8.60
2023-04-21T04:58:56.199Z,8.60
2023-04-21T05:00:58.683Z,8.60
2023-04-21T05:03:01.431Z,8.50
2023-04-21T05:05:04.723Z,8.50
2023-04-21T05:07:07.359Z,8.50
2023-04-21T05:09:10.124Z,8.50
2023-04-21T05:11:12.623Z,8.50
2023-04-21T05:13:17.350Z,8.50
2023-04-21T05:15:20.039Z,8.50
2023-04-21T05:17:22.496Z,8.50
2023-04-21T05:19:25.418Z,8.50
2023-04-21T05:21:28.469Z,8.60
2023-04-21T05:23:31.019Z,8.60
2023-04-21T05:25:33.575Z,8.60
2023-04-21T05:27:36.185Z,8.60
2023-04-21T05:29:38.644Z,8.60
2023-04-21T05:31:41.185Z,8.60
2023-04-21T05:33:43.808Z,8.60
2023-04-21T05:35:46.254Z,8.60
2023-04-21T05:37:48.749Z,8.60
2023-04-21T05:39:51.847Z,8.60
2023-04-21T05:41:54.463Z,8.60
2023-04-21T05:43:56.962Z,8.70
2023-04-21T05:45:59.438Z,8.70
2023-04-21T05:48:01.965Z,8.70
2023-04-21T05:50:04.852Z,8.70
2023-04-21T05:52:09.882Z,8.70
2023-04-21T05:54:12.383Z,8.70
2023-04-21T05:56:14.834Z,8.70
2023-04-21T05:58:17.326Z,8.70
2023-04-21T06:00:19.958Z,8.70
2023-04-21T06:02:22.917Z,8.70
2023-04-21T06:04:25.856Z,8.80
2023-04-21T06:06:28.746Z,8.80
2023-04-21T06:08:31.272Z,8.80
2023-04-21T06:10:34.416Z,8.80
2023-04-21T06:12:37.044Z,8.80
2023-04-21T06:14:39.548Z,8.80
2023-04-21T06:16:42.054Z,8.80
2023-04-21T06:18:44.633Z,8.90
2023-04-21T06:20:50.453Z,8.80
2023-04-21T06:22:52.957Z,8.90
2023-04-21T06:24:55.437Z,9.00
2023-04-21T06:26:57.911Z,9.00
2023-04-21T06:29:00.417Z,9.10
2023-04-21T06:31:04.941Z,9.10
2023-04-21T06:33:07.902Z,9.20
2023-04-21T06:35:10.503Z,9.20
2023-04-21T06:37:12.986Z,9.30
2023-04-21T06:39:15.464Z,9.30
2023-04-21T06:41:18.372Z,9.40
2023-04-21T06:43:21.297Z,9.40
2023-04-21T06:45:24.653Z,9.40
2023-04-21T06:47:27.877Z,9.40
2023-04-21T06:49:30.598Z,9.50
2023-04-21T06:51:33.168Z,9.50
2023-04-21T06:53:36.825Z,9.60
2023-04-21T06:55:39.438Z,9.60
2023-04-21T06:59:56.280Z,9.70
2023-04-21T07:01:58.775Z,9.70
2023-04-21T07:04:01.378Z,9.70
2023-04-21T07:06:04.219Z,9.70
2023-04-21T07:08:06.679Z,9.80
2023-04-21T07:10:09.953Z,9.90
2023-04-21T07:12:12.461Z,9.90
2023-04-21T07:14:15.173Z,10.00
2023-04-21T07:16:17.654Z,10.00
2023-04-21T07:18:20.132Z,10.00
2023-04-21T07:20:22.597Z,10.10
2023-04-21T07:22:25.129Z,10.00
2023-04-21T07:24:28.262Z,10.10
2023-04-21T07:26:31.165Z,10.10
2023-04-21T07:28:33.633Z,10.10
2023-04-21T07:30:36.232Z,10.10
2023-04-21T07:32:38.962Z,10.10
2023-04-21T07:34:41.582Z,10.10
2023-04-21T07:36:44.062Z,10.20
2023-04-21T07:38:46.619Z,10.20
2023-04-21T07:40:49.076Z,10.30
2023-04-21T07:42:51.713Z,10.30
2023-04-21T07:44:55.709Z,10.40
2023-04-21T07:46:59.288Z,10.50
2023-04-21T07:49:04.163Z,10.60
2023-04-21T07:51:21.527Z,10.60
2023-04-21T07:53:24.986Z,10.60
2023-04-21T07:55:27.540Z,10.70
2023-04-21T07:57:32.240Z,10.70
2023-04-21T07:59:34.723Z,10.80
2023-04-21T08:01:37.224Z,10.80
2023-04-21T08:03:39.947Z,10.80
2023-04-21T08:05:43.056Z,10.90
2023-04-21T08:07:45.587Z,10.90
2023-04-21T08:09:48.284Z,11.00
2023-04-21T08:11:50.767Z,11.00
2023-04-21T08:13:53.224Z,11.00
2023-04-21T08:15:55.744Z,11.10
2023-04-21T08:17:58.414Z,11.10
2023-04-21T08:20:01.192Z,11.20
2023-04-21T08:22:03.780Z,11.20
2023-04-21T08:24:06.827Z,11.30
2023-04-21T08:26:10.330Z,11.30
2023-04-21T08:28:13.593Z,11.30
2023-04-21T08:30:16.324Z,11.40
2023-04-21T08:32:21.093Z,11.40
2023-04-21T08:34:25.737Z,11.40
2023-04-21T08:36:29.756Z,11.50
2023-04-21T08:38:38.220Z,11.50
2023-04-21T08:40:41.429Z,11.60
2023-04-21T08:42:44.313Z,11.70
2023-04-21T08:44:47.066Z,11.70
2023-04-21T08:46:50.811Z,11.70
2023-04-21T08:48:55.068Z,11.80
2023-04-21T08:50:57.880Z,11.80
2023-04-21T08:53:00.404Z,11.90
2023-04-21T08:55:03.668Z,12.00
2023-04-21T08:57:15.491Z,12.00
2023-04-21T08:59:11.095Z,12.10
2023-04-21T09:01:13.607Z,12.10
2023-04-21T09:03:26.070Z,12.20
2023-04-21T09:05:26.453Z,12.20
2023-04-21T09:09:53.734Z,12.40
2023-04-21T09:11:57.816Z,12.40
2023-04-21T09:14:00.452Z,12.50
2023-04-21T09:16:04.642Z,12.50
2023-04-21T09:18:13.776Z,12.50
2023-04-21T09:20:17.385Z,12.60
2023-04-21T09:22:19.984Z,12.50
2023-04-21T09:24:22.771Z,12.60
2023-04-21T09:26:25.976Z,12.60
2023-04-21T09:28:30.420Z,12.60
2023-04-21T09:30:35.097Z,12.60
2023-04-21T09:32:37.832Z,12.60
2023-04-21T09:34:42.854Z,12.70
2023-04-21T09:36:45.563Z,12.60
2023-04-21T09:39:08.933Z,12.60
2023-04-21T09:40:58.430Z,12.70
2023-04-21T09:43:00.957Z,12.60
2023-04-21T09:45:23.287Z,12.60
2023-04-21T09:47:10.315Z,12.70
2023-04-21T09:49:13.719Z,12.30
2023-04-21T09:53:26.539Z,12.80
2023-04-21T09:55:30.840Z,12.80
2023-04-21T09:57:35.143Z,12.90
2023-04-21T09:59:38.286Z,12.90
2023-04-21T10:01:40.935Z,13.00
2023-04-21T10:05:58.560Z,13.20
2023-04-21T10:08:01.249Z,13.30
2023-04-21T10:10:05.606Z,13.40
2023-04-21T10:12:09.788Z,13.60
2023-04-21T10:14:12.868Z,13.70
2023-04-21T10:16:16.903Z,13.80
2023-04-21T10:18:21.235Z,14.00
2023-04-21T10:20:23.808Z,14.10
2023-04-21T10:22:29.509Z,14.30
2023-04-21T10:24:33.928Z,14.30
2023-04-21T10:26:36.533Z,14.40
2023-04-21T10:28:50.916Z,14.60
2023-04-21T10:30:55.193Z,14.70
2023-04-21T10:33:02.946Z,14.80
2023-04-21T10:35:07.958Z,14.60
2023-04-21T10:37:15.670Z,14.50
2023-04-21T10:39:27.964Z,14.50
2023-04-21T10:41:31.138Z,14.60
2023-04-21T10:43:43.424Z,14.70
2023-04-21T10:45:46.214Z,14.60
2023-04-21T10:47:50.853Z,14.60
2023-04-21T10:49:53.503Z,14.70
2023-04-21T10:52:06.179Z,14.80
2023-04-21T10:54:10.516Z,14.90
2023-04-21T10:56:13.009Z,15.00
2023-04-21T10:58:16.092Z,14.90
2023-04-21T11:00:19.888Z,15.00
2023-04-21T11:02:22.904Z,15.20
2023-04-21T11:04:26.197Z,15.30
2023-04-21T11:06:29.242Z,15.20
2023-04-21T11:08:31.773Z,15.40
2023-04-21T11:10:44.547Z,15.50
2023-04-21T11:12:47.018Z,15.70
2023-04-21T11:14:49.511Z,15.60
2023-04-21T11:16:52.019Z,15.50
2023-04-21T11:18:56.308Z,15.70
2023-04-21T11:21:07.306Z,15.50
2023-04-21T11:23:10.115Z,15.60
2023-04-21T11:25:17.845Z,15.20
2023-04-21T11:27:21.762Z,15.60
2023-04-21T11:29:24.331Z,15.70
2023-04-21T11:31:28.928Z,15.80
2023-04-21T11:33:33.369Z,15.70
2023-04-21T11:35:37.685Z,16.00
2023-04-21T11:37:40.666Z,16.10
2023-04-21T11:39:43.638Z,16.20
2023-04-21T11:41:47.401Z,16.30
2023-04-21T11:43:49.864Z,16.10
2023-04-21T11:45:52.427Z,16.20
2023-04-21T11:47:56.814Z,16.10
2023-04-21T11:50:01.022Z,16.10
2023-04-21T11:52:03.552Z,16.00
2023-04-21T11:56:21.666Z,15.80
2023-04-21T11:58:24.171Z,15.70
2023-04-21T12:00:28.511Z,15.60
2023-04-21T12:02:31.746Z,15.50
2023-04-21T12:04:35.533Z,15.50
2023-04-21T12:06:38.086Z,15.60
2023-04-21T12:08:43.371Z,15.50
2023-04-21T12:10:46.443Z,15.50
2023-04-21T12:12:49.106Z,15.50
2023-04-21T12:14:51.608Z,15.60
2023-04-21T12:16:55.250Z,15.70
2023-04-21T12:18:57.804Z,15.80
2023-04-21T12:21:01.373Z,16.00
2023-04-21T12:23:03.843Z,16.00
2023-04-21T12:25:08.358Z,16.10
2023-04-21T12:27:11.334Z,16.10
2023-04-21T12:29:13.829Z,16.20
2023-04-21T12:31:16.350Z,16.20
2023-04-21T12:33:19.085Z,16.20
2023-04-21T12:35:21.807Z,16.40
2023-04-21T12:37:24.294Z,16.50
2023-04-21T12:39:26.807Z,16.60
2023-04-21T12:41:29.343Z,16.70
2023-04-21T12:43:31.843Z,16.60
2023-04-21T12:45:34.318Z,16.60
2023-04-21T12:47:37.111Z,16.70
2023-04-21T12:49:39.773Z,16.90
2023-04-21T12:51:42.775Z,16.80
2023-04-21T12:53:46.369Z,16.80
2023-04-21T12:56:03.558Z,17.00
2023-04-21T12:57:55.278Z,16.90
2023-04-21T12:59:57.858Z,17.00
2023-04-21T13:02:00.456Z,17.00
2023-04-21T13:04:03.247Z,17.00
2023-04-21T13:06:06.455Z,16.90
2023-04-21T13:08:09.051Z,17.00
2023-04-21T13:10:11.926Z,16.80
2023-04-21T13:12:14.694Z,16.80
2023-04-21T13:14:17.369Z,16.80
2023-04-21T13:16:19.899Z,16.80
2023-04-21T13:18:22.448Z,16.80
2023-04-21T13:22:40.811Z,16.90
2023-04-21T13:24:43.435Z,16.80
2023-04-21T13:26:45.911Z,16.90
2023-04-21T13:28:48.429Z,17.00
2023-04-21T13:30:51.898Z,16.90
2023-04-21T13:32:54.678Z,17.00
2023-04-21T13:34:57.570Z,16.90
2023-04-21T13:37:00.420Z,16.90
2023-04-21T13:39:04.147Z,16.90
2023-04-21T13:41:07.289Z,16.90
2023-04-21T13:43:09.889Z,17.00
2023-04-21T13:45:12.703Z,17.00
2023-04-21T13:47:15.275Z,17.00
2023-04-21T13:49:18.265Z,17.10
2023-04-21T13:51:20.865Z,17.20
2023-04-21T13:53:23.407Z,17.10
2023-04-21T13:55:26.362Z,17.00
2023-04-21T13:57:28.940Z,17.10
2023-04-21T13:59:31.576Z,16.90
2023-04-21T14:01:34.357Z,17.10
2023-04-21T14:03:37.110Z,16.80
2023-04-21T14:05:40.279Z,17.00
2023-04-21T14:07:43.297Z,17.10
2023-04-21T14:09:45.957Z,17.00
2023-04-21T14:11:48.421Z,17.00
2023-04-21T14:14:05.333Z,16.90
2023-04-21T14:15:55.504Z,16.90
2023-04-21T14:17:58.042Z,16.80
2023-04-21T14:20:00.553Z,16.90
2023-04-21T14:22:03.046Z,16.90
2023-04-21T14:24:05.581Z,16.70
2023-04-21T14:26:08.191Z,16.70
2023-04-21T14:28:10.675Z,16.70
2023-04-21T14:30:14.366Z,16.70
2023-04-21T14:32:18.739Z,16.60
2023-04-21T14:34:21.228Z,16.60
2023-04-21T14:36:23.730Z,16.60
2023-04-21T14:38:26.245Z,16.60
2023-04-21T14:40:28.707Z,16.70
2023-04-21T14:42:31.264Z,16.60
2023-04-21T14:44:35.076Z,16.60
2023-04-21T14:46:38.027Z,16.60
2023-04-21T14:48:42.438Z,16.60
2023-04-21T14:50:45.002Z,16.70
2023-04-21T14:52:49.126Z,16.60
2023-04-21T14:54:51.679Z,16.70
2023-04-21T14:57:03.348Z,16.60
2023-04-21T14:58:58.599Z,16.70
2023-04-21T15:01:01.200Z,16.70
2023-04-21T15:03:04.028Z,16.80
2023-04-21T15:05:08.100Z,16.80
2023-04-21T15:07:10.885Z,16.80
2023-04-21T15:09:14.054Z,16.80
2023-04-21T15:11:16.557Z,16.90
2023-04-21T15:13:19.221Z,16.90
2023-04-21T15:15:21.740Z,17.00
2023-04-21T15:17:24.267Z,17.00
2023-04-21T15:19:26.847Z,17.10
2023-04-21T15:21:29.310Z,17.20
2023-04-21T15:23:33.083Z,17.30
2023-04-21T15:25:36.065Z,17.30
2023-04-21T15:27:38.649Z,17.40
2023-04-21T15:29:41.295Z,17.40
2023-04-21T15:31:43.823Z,17.40
2023-04-21T15:33:48.189Z,17.50
2023-04-21T15:35:50.810Z,17.50
2023-04-21T15:37:53.281Z,17.50
2023-04-21T15:39:55.907Z,17.50
2023-04-21T15:41:58.714Z,17.50
2023-04-21T15:44:01.221Z,17.60
2023-04-21T15:46:05.955Z,17.60
2023-04-21T15:48:08.483Z,17.70
2023-04-21T15:50:11.664Z,17.70
2023-04-21T15:52:14.109Z,17.80
2023-04-21T15:54:16.607Z,17.80
2023-04-21T15:56:19.121Z,17.80
2023-04-21T15:58:21.718Z,17.70
2023-04-21T16:00:24.413Z,17.70
2023-04-21T16:02:27.003Z,17.70
2023-04-21T16:04:29.787Z,17.70
2023-04-21T16:06:32.816Z,17.70
2023-04-21T16:08:35.395Z,17.70
2023-04-21T16:10:37.957Z,17.70
2023-04-21T16:12:41.136Z,17.70
2023-04-21T16:14:54.528Z,17.70
2023-04-21T16:16:48.023Z,17.80
2023-04-21T16:18:50.548Z,17.80
2023-04-21T16:20:53.020Z,18.00
2023-04-21T16:22:55.551Z,18.10
2023-04-21T16:25:00.014Z,18.00
2023-04-21T16:27:02.701Z,17.90
2023-04-21T16:29:05.331Z,17.80
2023-04-21T16:31:07.992Z,17.70
2023-04-21T16:33:10.798Z,17.70
2023-04-21T16:35:13.457Z,17.70
2023-04-21T16:37:16.325Z,17.60
2023-04-21T16:39:18.939Z,17.60
2023-04-21T16:41:21.482Z,17.60
2023-04-21T16:43:24.091Z,17.50
2023-04-21T16:45:27.402Z,17.50
2023-04-21T16:47:30.248Z,17.40
2023-04-21T16:49:32.822Z,17.30
2023-04-21T16:51:36.278Z,17.30
2023-04-21T16:53:40.277Z,17.30
2023-04-21T16:55:43.065Z,17.20
2023-04-21T16:57:45.571Z,17.30
2023-04-21T16:59:48.041Z,17.30
2023-04-21T17:01:50.618Z,17.20
2023-04-21T17:03:53.222Z,17.20
2023-04-21T17:05:55.880Z,17.10
2023-04-21T17:07:58.507Z,17.10
2023-04-21T17:10:01.162Z,17.00
2023-04-21T17:12:03.901Z,16.80
2023-04-21T17:14:06.380Z,16.70
2023-04-21T17:16:08.933Z,16.60
2023-04-21T17:18:11.564Z,16.40
2023-04-21T17:20:14.347Z,16.30
2023-04-21T17:22:17.056Z,16.20
2023-04-21T17:24:19.530Z,16.30
2023-04-21T17:26:22.859Z,16.10
2023-04-21T17:28:26.558Z,16.10
2023-04-21T17:30:29.478Z,16.10
2023-04-21T17:32:34.028Z,16.10
2023-04-21T17:34:36.816Z,15.80
2023-04-21T17:36:40.122Z,15.70
2023-04-21T17:38:42.918Z,15.70
2023-04-21T17:40:45.677Z,15.60
2023-04-21T17:42:48.169Z,15.60
2023-04-21T17:44:50.734Z,15.60
2023-04-21T17:46:53.238Z,15.60
2023-04-21T17:48:56.230Z,15.60
2023-04-21T17:50:58.739Z,15.50
2023-04-21T17:53:01.362Z,15.30
2023-04-21T17:55:04.215Z,15.30
2023-04-21T17:57:06.762Z,15.40
2023-04-21T17:59:09.343Z,15.30
2023-04-21T18:01:11.896Z,15.30
2023-04-21T18:03:14.739Z,15.20
2023-04-21T18:05:17.609Z,15.20
2023-04-21T18:07:20.515Z,15.10
2023-04-21T18:09:23.232Z,15.00
2023-04-21T18:11:25.862Z,15.00
2023-04-21T18:13:28.360Z,14.90
2023-04-21T18:15:30.830Z,14.90
2023-04-21T18:17:34.294Z,14.80
2023-04-21T18:19:36.751Z,14.80
2023-04-21T18:21:39.381Z,14.70
2023-04-21T18:25:59.529Z,14.60
2023-04-21T18:28:02.169Z,14.60
2023-04-21T18:30:08.063Z,14.60
2023-04-21T18:32:13.155Z,14.60
2023-04-21T18:34:18.047Z,14.50
2023-04-21T18:36:22.772Z,14.50
2023-04-21T18:38:28.578Z,14.30
2023-04-21T18:40:33.319Z,14.10
2023-04-21T18:44:57.752Z,14.00
2023-04-21T18:47:02.533Z,13.90
2023-04-21T18:49:07.528Z,13.80
2023-04-21T18:51:11.955Z,13.70
2023-04-21T18:53:15.671Z,13.70
2023-04-21T18:55:20.252Z,13.60
2023-04-21T18:57:26.648Z,13.60
2023-04-21T18:59:32.155Z,13.50
2023-04-21T19:01:36.409Z,13.40
2023-04-21T19:03:40.772Z,13.30
2023-04-21T19:05:43.836Z,13.30
2023-04-21T19:07:47.948Z,13.20
2023-04-21T19:09:51.945Z,13.20
2023-04-21T19:11:59.025Z,13.20
2023-04-21T19:14:04.010Z,13.10
2023-04-21T19:16:09.164Z,13.10
2023-04-21T19:18:15.040Z,13.00
2023-04-21T19:20:20.087Z,12.90
2023-04-21T19:22:23.755Z,12.60
2023-04-21T19:24:26.700Z,12.40
2023-04-21T19:26:29.195Z,12.40
2023-04-21T19:28:32.179Z,12.40
2023-04-21T19:30:34.692Z,12.40
2023-04-21T19:32:37.194Z,12.40
2023-04-21T19:34:40.238Z,12.30
2023-04-21T19:36:43.171Z,12.30
2023-04-21T19:38:45.659Z,12.30
2023-04-21T19:40:48.192Z,12.30
2023-04-21T19:42:50.675Z,12.30
2023-04-21T19:44:53.497Z,12.30
2023-04-21T19:46:56.602Z,12.20
2023-04-21T19:48:59.197Z,12.20
2023-04-21T19:51:01.971Z,12.20
2023-04-21T19:53:04.595Z,12.20
2023-04-21T19:55:07.704Z,12.10
2023-04-21T19:57:10.291Z,12.10
2023-04-21T19:59:13.979Z,12.00
2023-04-21T20:01:17.882Z,11.90
2023-04-21T20:03:21.042Z,11.90
2023-04-21T20:05:23.777Z,11.80
2023-04-21T20:07:26.494Z,11.80
2023-04-21T20:09:29.254Z,11.80
2023-04-21T20:11:32.678Z,11.70
2023-04-21T20:13:35.609Z,11.60
2023-04-21T20:15:39.357Z,11.70
2023-04-21T20:17:42.184Z,11.80
2023-04-21T20:19:46.232Z,11.90
2023-04-21T20:21:49.717Z,12.00
2023-04-21T20:23:52.449Z,12.10
2023-04-21T20:25:55.678Z,12.30
2023-04-21T20:27:58.752Z,12.60
2023-04-21T20:30:01.429Z,12.80
2023-04-21T20:32:04.409Z,12.80
2023-04-21T20:34:07.863Z,12.70
2023-04-21T20:36:11.524Z,12.70
2023-04-21T20:38:15.517Z,12.70
2023-04-21T20:40:20.372Z,12.60
2023-04-21T20:44:40.620Z,13.00
2023-04-21T20:46:43.301Z,13.10
2023-04-21T20:48:46.884Z,13.20
2023-04-21T20:50:51.336Z,13.20
2023-04-21T20:52:54.283Z,13.10
2023-04-21T20:54:56.940Z,13.00
2023-04-21T20:56:59.541Z,13.00
2023-04-21T20:59:02.179Z,13.00
2023-04-21T21:01:05.055Z,13.00
2023-04-21T21:03:09.877Z,12.90
2023-04-21T21:05:12.867Z,12.80
2023-04-21T21:07:15.556Z,12.90
2023-04-21T21:09:18.430Z,13.00
2023-04-21T21:11:20.990Z,12.90
2023-04-21T21:13:23.637Z,12.80
2023-04-21T21:15:26.452Z,12.70
2023-04-21T21:17:29.182Z,12.70
2023-04-21T21:19:31.877Z,12.70
2023-04-21T21:21:35.051Z,12.50
2023-04-21T21:23:38.650Z,12.40
2023-04-21T21:25:41.479Z,12.40
2023-04-21T21:27:44.118Z,12.40
2023-04-21T21:29:46.742Z,12.20
2023-04-21T21:31:49.380Z,12.10
2023-04-21T21:33:52.062Z,12.00
2023-04-21T21:35:54.649Z,11.90
2023-04-21T21:37:58.440Z,11.90
2023-04-21T21:40:01.303Z,11.90
2023-04-21T21:42:04.227Z,12.00
2023-04-21T21:44:07.223Z,12.10
2023-04-21T21:46:09.706Z,12.00
2023-04-21T21:48:12.620Z,12.00
2023-04-21T21:50:15.087Z,12.00
2023-04-21T21:52:17.597Z,12.10
2023-04-21T21:54:20.073Z,12.00
2023-04-21T21:56:23.386Z,12.00
2023-04-21T21:58:26.011Z,12.00
2023-04-21T22:00:29.022Z,12.00
2023-04-21T22:02:31.678Z,12.00
2023-04-21T22:04:34.474Z,11.90
2023-04-21T22:06:37.681Z,11.90
2023-04-21T22:08:41.349Z,11.80
2023-04-21T22:10:44.590Z,11.80
2023-04-21T22:12:47.103Z,11.80
2023-04-21T22:14:49.591Z,11.80
2023-04-21T22:16:52.582Z,11.70
2023-04-21T22:18:56.513Z,11.60
2023-04-21T22:20:59.132Z,11.60
2023-04-21T22:23:01.626Z,11.60
2023-04-21T22:25:04.451Z,11.50
2023-04-21T22:27:07.201Z,11.60
2023-04-21T22:29:09.691Z,11.50
2023-04-21T22:31:12.236Z,11.50
2023-04-21T22:33:14.883Z,11.50
2023-04-21T22:35:17.408Z,11.50
2023-04-21T22:37:19.894Z,11.60
2023-04-21T22:39:22.389Z,11.50
2023-04-21T22:41:26.028Z,11.50
2023-04-21T22:43:28.531Z,11.30
2023-04-21T22:45:30.973Z,11.20
2023-04-21T22:47:34.873Z,11.10
2023-04-21T22:49:37.760Z,10.80
2023-04-21T22:51:41.651Z,10.80
2023-04-21T22:53:44.247Z,10.90
2023-04-21T22:58:02.251Z,10.90
2023-04-21T23:00:06.072Z,10.80
2023-04-21T23:02:08.659Z,10.80
2023-04-21T23:04:11.395Z,10.80
2023-04-21T23:06:14.006Z,10.80
2023-04-21T23:08:16.522Z,10.90
2023-04-21T23:10:19.067Z,10.90
2023-04-21T23:12:21.558Z,11.00
2023-04-21T23:14:24.088Z,10.90
2023-04-21T23:16:26.615Z,11.00
2023-04-21T23:18:29.313Z,11.00
2023-04-21T23:20:31.804Z,11.00
2023-04-21T23:22:34.252Z,11.10
2023-04-21T23:24:36.778Z,11.10
2023-04-21T23:26:39.401Z,11.00
2023-04-21T23:28:41.901Z,11.00
2023-04-21T23:30:44.370Z,11.00
2023-04-21T23:32:46.880Z,11.00
2023-04-21T23:34:49.419Z,11.00
2023-04-21T23:36:51.882Z,11.00
2023-04-21T23:39:15.918Z,10.90
2023-04-21T23:41:41.134Z,10.80
2023-04-21T23:43:46.869Z,10.60
2023-04-21T23:45:49.609Z,10.50
2023-04-21T23:47:52.146Z,10.50
2023-04-21T23:49:54.729Z,10.50
2023-04-21T23:51:57.215Z,10.60
2023-04-21T23:54:01.021Z,10.60
2023-04-21T23:56:03.479Z,10.50
2023-04-21T23:58:06.636Z,10.50
